createdAt,value
2023-04-24T00:00:41.880Z,99791.13
2023-04-24T00:03:10.472Z,99786.00
2023-04-24T00:05:41.245Z,99789.00
2023-04-24T00:08:09.447Z,99790.50
2023-04-24T00:10:37.968Z,99794.28
2023-04-24T00:13:06.341Z,99787.19
2023-04-24T00:15:34.599Z,99795.03
2023-04-24T00:18:03.483Z,99785.66
2023-04-24T00:20:33.412Z,99790.31
2023-04-24T00:23:03.303Z,99766.06
2023-04-24T00:25:31.634Z,99797.44
2023-04-24T00:27:59.952Z,99769.56
2023-04-24T00:30:28.432Z,99801.16
2023-04-24T00:32:56.866Z,99792.09
2023-04-24T00:35:26.090Z,99798.41
2023-04-24T00:37:54.471Z,99707.94
2023-04-24T00:40:24.491Z,99792.22
2023-04-24T00:42:52.934Z,99798.50
2023-04-24T00:45:21.873Z,99778.75
2023-04-24T00:47:51.421Z,99788.28
2023-04-24T00:50:20.445Z,99783.72
2023-04-24T00:52:48.995Z,99782.47
2023-04-24T00:55:17.507Z,99788.44
2023-04-24T00:57:48.934Z,99792.56
2023-04-24T01:00:18.176Z,99784.63
2023-04-24T01:02:47.417Z,99790.31
2023-04-24T01:05:18.222Z,99806.34
2023-04-24T01:07:49.983Z,99796.88
2023-04-24T01:10:19.250Z,99794.84
2023-04-24T01:12:49.698Z,99796.78
2023-04-24T01:15:18.153Z,99792.50
2023-04-24T01:17:46.765Z,99794.59
2023-04-24T01:20:16.772Z,99783.72
2023-04-24T01:22:46.654Z,99794.97
2023-04-24T01:25:15.100Z,99795.91
2023-04-24T01:27:43.542Z,99792.38
2023-04-24T01:30:15.314Z,99789.66
2023-04-24T01:32:46.313Z,99794.22
2023-04-24T01:35:14.886Z,99741.03
2023-04-24T01:37:43.236Z,99793.84
2023-04-24T01:40:13.745Z,99793.59
2023-04-24T01:42:44.302Z,99773.81
2023-04-24T01:45:14.130Z,99785.72
2023-04-24T01:47:42.884Z,99794.63
2023-04-24T01:50:12.184Z,99788.38
2023-04-24T01:52:41.154Z,99789.91
2023-04-24T01:55:13.566Z,99792.56
2023-04-24T01:57:42.537Z,99791.50
2023-04-24T02:00:13.150Z,99801.28
2023-04-24T02:02:41.591Z,99793.41
2023-04-24T02:05:11.993Z,99797.75
2023-04-24T02:07:40.996Z,99786.59
2023-04-24T02:10:12.445Z,99789.91
2023-04-24T02:12:44.550Z,99789.91
2023-04-24T02:15:13.720Z,99781.88
2023-04-24T02:17:42.190Z,99785.00
2023-04-24T02:20:10.777Z,99784.81
2023-04-24T02:22:40.598Z,99785.22
2023-04-24T02:25:10.161Z,99790.94
2023-04-24T02:27:39.847Z,99788.72
2023-04-24T02:30:10.200Z,99792.09
2023-04-24T02:32:40.029Z,99775.50
2023-04-24T02:35:09.756Z,99783.28
2023-04-24T02:37:38.151Z,99782.03
2023-04-24T02:40:08.695Z,99798.75
2023-04-24T02:42:37.176Z,99792.81
2023-04-24T02:45:08.651Z,99789.63
2023-04-24T02:47:37.132Z,99790.50
2023-04-24T02:50:07.128Z,99791.19
2023-04-24T02:52:35.463Z,99800.56
2023-04-24T02:55:03.943Z,99797.63
2023-04-24T02:57:32.315Z,99784.75
2023-04-24T03:00:00.692Z,99797.81
2023-04-24T03:02:30.814Z,99793.06
2023-04-24T03:04:59.362Z,99783.09
2023-04-24T03:07:27.832Z,99787.44
2023-04-24T03:09:56.762Z,99781.88
2023-04-24T03:12:25.082Z,99771.09
2023-04-24T03:14:53.411Z,99770.53
2023-04-24T03:17:21.705Z,99765.78
2023-04-24T03:19:52.106Z,99774.44
2023-04-24T03:22:20.492Z,99773.44
2023-04-24T03:24:48.909Z,99764.72
2023-04-24T03:27:19.489Z,99766.31
2023-04-24T03:30:01.906Z,99776.28
2023-04-24T03:32:56.603Z,99794.16
2023-04-24T03:35:30.416Z,99795.16
2023-04-24T03:38:02.765Z,99802.06
2023-04-24T03:40:40.156Z,99800.56
2023-04-24T03:43:19.653Z,99806.38
2023-04-24T03:45:48.529Z,99808.03
2023-04-24T03:48:17.480Z,99814.88
2023-04-24T03:50:47.591Z,99801.91
2023-04-24T03:53:16.710Z,99817.56
2023-04-24T03:55:45.870Z,99804.00
2023-04-24T03:58:15.239Z,99807.63
2023-04-24T04:00:45.468Z,99821.25
2023-04-24T04:03:49.079Z,99806.88
2023-04-24T04:06:23.509Z,99817.56
2023-04-24T04:08:53.595Z,99834.88
2023-04-24T04:11:21.930Z,99836.97
2023-04-24T04:13:50.294Z,99839.41
2023-04-24T04:16:21.523Z,99850.88
2023-04-24T04:18:52.608Z,99854.50
2023-04-24T04:21:22.326Z,99852.72
2023-04-24T04:23:57.787Z,99861.97
2023-04-24T04:26:34.757Z,99862.84
2023-04-24T04:29:07.742Z,99897.94
2023-04-24T04:31:39.251Z,99876.38
2023-04-24T04:34:12.531Z,99885.53
2023-04-24T04:36:44.045Z,99880.59
2023-04-24T04:39:29.196Z,99929.84
2023-04-24T04:42:01.559Z,99908.03
2023-04-24T04:44:37.240Z,99815.06
2023-04-24T04:47:07.565Z,99913.59
2023-04-24T04:49:39.434Z,99900.41
2023-04-24T04:52:13.732Z,99958.66
2023-04-24T04:54:42.303Z,99953.25
2023-04-24T04:57:10.624Z,99943.38
2023-04-24T04:59:39.384Z,99967.78
2023-04-24T05:02:13.505Z,99968.63
2023-04-24T05:04:42.143Z,99973.03
2023-04-24T05:07:10.755Z,99974.06
2023-04-24T05:09:43.402Z,99976.09
2023-04-24T05:12:11.885Z,99993.78
2023-04-24T05:14:48.107Z,99976.38
2023-04-24T05:17:16.529Z,100000.97
2023-04-24T05:19:45.227Z,100013.25
2023-04-24T05:22:14.139Z,100025.34
2023-04-24T05:24:51.354Z,100022.91
2023-04-24T05:27:38.059Z,100043.31
2023-04-24T05:30:12.305Z,100063.53
2023-04-24T05:32:40.761Z,100051.06
2023-04-24T05:35:10.606Z,100058.13
2023-04-24T05:37:38.981Z,100058.72
2023-04-24T05:40:11.477Z,100073.84
2023-04-24T05:42:40.016Z,100071.06
2023-04-24T05:45:10.329Z,100084.09
2023-04-24T05:47:38.679Z,100093.69
2023-04-24T05:50:09.012Z,100093.63
2023-04-24T05:52:37.282Z,100093.94
2023-04-24T05:55:12.995Z,100111.34
2023-04-24T05:57:43.906Z,100113.34
2023-04-24T06:00:14.183Z,100126.69
2023-04-24T06:02:47.254Z,100132.03
2023-04-24T06:05:16.873Z,100148.81
2023-04-24T06:07:45.176Z,100149.66
2023-04-24T06:10:15.128Z,100161.81
2023-04-24T06:12:45.948Z,100161.06
2023-04-24T06:15:18.743Z,100179.53
2023-04-24T06:17:56.383Z,100173.38
2023-04-24T06:20:25.159Z,100178.56
2023-04-24T06:22:53.512Z,100181.25
2023-04-24T06:25:23.328Z,100183.84
2023-04-24T06:27:52.835Z,100196.03
2023-04-24T06:30:21.234Z,100206.59
2023-04-24T06:32:49.570Z,100207.53
2023-04-24T06:35:18.046Z,100217.19
2023-04-24T06:37:46.483Z,100172.50
2023-04-24T06:40:15.025Z,100224.16
2023-04-24T06:42:44.705Z,100201.66
2023-04-24T06:47:56.989Z,100250.81
2023-04-24T06:50:25.348Z,100251.66
2023-04-24T06:52:53.707Z,100251.63
2023-04-24T06:55:21.965Z,100264.66
2023-04-24T06:57:50.235Z,100263.03
2023-04-24T07:00:18.963Z,100272.72
2023-04-24T07:02:47.558Z,100274.38
2023-04-24T07:05:20.829Z,100281.44
2023-04-24T07:07:50.377Z,100283.22
2023-04-24T07:10:19.153Z,100299.06
2023-04-24T07:12:47.717Z,100298.28
2023-04-24T07:15:16.131Z,100301.88
2023-04-24T07:17:45.438Z,100308.00
2023-04-24T07:20:15.496Z,100323.66
2023-04-24T07:22:45.436Z,100320.97
2023-04-24T07:25:13.705Z,100313.94
2023-04-24T07:27:42.061Z,100325.44
2023-04-24T07:30:11.657Z,100310.66
2023-04-24T07:32:39.981Z,100337.03
2023-04-24T07:35:10.739Z,100349.25
2023-04-24T07:37:39.095Z,100350.88
2023-04-24T07:40:10.177Z,100355.44
2023-04-24T07:42:39.251Z,100362.50
2023-04-24T07:45:09.175Z,100365.13
2023-04-24T07:47:39.370Z,100369.66
2023-04-24T07:50:08.716Z,100381.03
2023-04-24T07:52:37.174Z,100368.75
2023-04-24T07:55:06.437Z,100380.28
2023-04-24T07:57:36.204Z,100379.31
2023-04-24T08:00:06.690Z,100375.94
2023-04-24T08:02:39.954Z,100386.50
2023-04-24T08:05:10.134Z,100393.53
2023-04-24T08:07:38.653Z,100397.81
2023-04-24T08:10:08.857Z,100392.56
2023-04-24T08:12:39.198Z,100396.91
2023-04-24T08:15:09.021Z,100407.50
2023-04-24T08:17:37.905Z,100412.72
2023-04-24T08:20:11.252Z,100404.75
2023-04-24T08:22:39.674Z,100424.94
2023-04-24T08:25:09.461Z,100416.84
2023-04-24T08:27:40.086Z,100420.44
2023-04-24T08:30:09.347Z,100439.78
2023-04-24T08:32:38.650Z,100447.81
2023-04-24T08:35:10.087Z,100452.28
2023-04-24T08:37:39.413Z,100455.13
2023-04-24T08:40:15.145Z,100433.19
2023-04-24T08:42:47.013Z,100455.16
2023-04-24T08:45:15.907Z,100470.91
2023-04-24T08:47:45.510Z,100471.84
2023-04-24T08:50:14.135Z,100469.88
2023-04-24T08:52:44.362Z,100466.44
2023-04-24T08:55:13.161Z,100429.84
2023-04-24T08:57:41.999Z,100485.06
2023-04-24T09:00:13.623Z,100480.75
2023-04-24T09:02:45.597Z,100490.44
2023-04-24T09:05:16.280Z,100493.97
2023-04-24T09:07:52.133Z,100493.88
2023-04-24T09:10:20.508Z,100499.06
2023-04-24T09:12:49.922Z,100494.72
2023-04-24T09:15:21.511Z,100502.59
2023-04-24T09:17:50.496Z,100501.69
2023-04-24T09:20:19.174Z,100479.78
2023-04-24T09:22:47.817Z,100493.78
2023-04-24T09:25:16.186Z,100483.13
2023-04-24T09:27:47.343Z,100492.94
2023-04-24T09:30:16.437Z,100494.50
2023-04-24T09:32:46.165Z,100506.88
2023-04-24T09:35:17.115Z,100463.78
2023-04-24T09:37:47.600Z,100519.00
2023-04-24T09:40:19.464Z,100512.84
2023-04-24T09:42:56.477Z,100519.09
2023-04-24T09:45:29.767Z,100528.72
2023-04-24T09:47:59.677Z,100540.06
2023-04-24T09:50:28.159Z,100532.25
2023-04-24T09:53:01.875Z,100535.66
2023-04-24T09:55:31.009Z,100545.34
2023-04-24T09:58:02.096Z,100559.31
2023-04-24T10:00:32.996Z,100563.97
2023-04-24T10:03:04.524Z,100564.19
2023-04-24T10:05:35.050Z,100570.28
2023-04-24T10:08:06.726Z,100577.28
2023-04-24T10:10:39.256Z,100563.19
2023-04-24T10:13:09.392Z,100579.06
2023-04-24T10:15:38.344Z,100573.63
2023-04-24T10:18:09.345Z,100579.75
2023-04-24T10:20:41.218Z,100580.66
2023-04-24T10:23:09.906Z,100575.41
2023-04-24T10:25:39.076Z,100573.59
2023-04-24T10:28:10.521Z,100571.63
2023-04-24T10:30:39.613Z,100571.78
2023-04-24T10:33:10.901Z,100576.22
2023-04-24T10:35:44.432Z,100583.44
2023-04-24T10:38:15.790Z,100580.78
2023-04-24T10:40:45.597Z,100578.06
2023-04-24T10:43:19.948Z,100599.88
2023-04-24T10:46:04.539Z,100605.03
2023-04-24T10:48:37.671Z,100596.97
2023-04-24T10:51:06.444Z,100611.06
2023-04-24T10:53:37.575Z,100625.38
2023-04-24T10:56:08.535Z,100600.22
2023-04-24T10:58:45.724Z,100627.31
2023-04-24T11:01:28.294Z,100591.53
2023-04-24T11:04:00.721Z,100633.66
2023-04-24T11:06:33.656Z,100631.69
2023-04-24T11:09:07.125Z,100613.91
2023-04-24T11:11:36.782Z,100631.97
2023-04-24T11:14:12.199Z,100641.53
2023-04-24T11:16:48.194Z,100645.06
2023-04-24T11:19:29.661Z,100652.97
2023-04-24T11:22:02.723Z,100649.31
2023-04-24T11:24:40.396Z,100654.59
2023-04-24T11:27:17.464Z,100661.94
2023-04-24T11:29:49.206Z,100662.00
2023-04-24T11:32:20.833Z,100684.91
2023-04-24T11:34:53.285Z,100668.09
2023-04-24T11:37:21.633Z,100671.78
2023-04-24T11:39:54.614Z,100681.38
2023-04-24T11:42:24.954Z,100670.88
2023-04-24T11:44:55.230Z,100680.53
2023-04-24T11:47:31.948Z,100694.59
2023-04-24T11:50:03.394Z,100683.97
2023-04-24T11:52:32.577Z,100691.97
2023-04-24T11:55:02.096Z,100693.66
2023-04-24T11:57:34.688Z,100695.28
2023-04-24T12:00:04.531Z,100689.66
2023-04-24T12:02:40.834Z,100712.47
2023-04-24T12:05:13.033Z,100710.94
2023-04-24T12:07:44.787Z,100711.94
2023-04-24T12:10:13.565Z,100723.34
2023-04-24T12:12:41.839Z,100732.47
2023-04-24T12:15:13.416Z,100739.56
2023-04-24T12:17:44.730Z,100724.75
2023-04-24T12:20:15.895Z,100714.19
2023-04-24T12:22:48.894Z,100733.50
2023-04-24T12:25:20.924Z,100722.19
2023-04-24T12:27:55.675Z,100729.03
2023-04-24T12:30:29.334Z,100729.69
2023-04-24T12:33:01.313Z,100731.66
2023-04-24T12:35:34.580Z,100736.25
2023-04-24T12:38:09.276Z,100748.56
2023-04-24T12:40:37.758Z,100739.84
2023-04-24T12:43:16.695Z,100620.66
2023-04-24T12:45:45.825Z,100741.84
2023-04-24T12:48:15.202Z,100662.75
2023-04-24T12:50:47.050Z,100739.03
2023-04-24T12:53:16.146Z,100740.72
2023-04-24T12:55:45.567Z,100730.09
2023-04-24T12:58:14.049Z,100749.47
2023-04-24T13:00:44.509Z,100751.19
2023-04-24T13:03:12.987Z,100753.19
2023-04-24T13:05:41.523Z,100766.63
2023-04-24T13:08:11.320Z,100766.63
2023-04-24T13:10:39.728Z,100770.25
2023-04-24T13:13:08.261Z,100779.09
2023-04-24T13:15:36.676Z,100777.28
2023-04-24T13:18:05.308Z,100779.06
2023-04-24T13:20:33.772Z,100770.97
2023-04-24T13:23:02.278Z,100777.84
2023-04-24T13:25:38.509Z,100780.44
2023-04-24T13:28:07.312Z,100763.75
2023-04-24T13:30:35.707Z,100781.25
2023-04-24T13:33:04.151Z,100793.69
2023-04-24T13:35:32.700Z,100776.88
2023-04-24T13:38:02.649Z,100785.63
2023-04-24T13:40:32.330Z,100788.22
2023-04-24T13:43:00.623Z,100796.22
2023-04-24T13:45:28.924Z,100787.28
2023-04-24T13:47:58.026Z,100788.09
2023-04-24T13:50:26.485Z,100798.72
2023-04-24T13:52:55.167Z,100795.38
2023-04-24T13:55:23.476Z,100793.63
2023-04-24T13:57:56.119Z,100785.69
2023-04-24T14:00:25.608Z,100796.25
2023-04-24T14:02:54.329Z,100792.66
2023-04-24T14:05:23.182Z,100795.22
2023-04-24T14:07:51.938Z,100801.31
2023-04-24T14:10:20.507Z,100799.59
2023-04-24T14:12:49.199Z,100805.00
2023-04-24T14:15:19.056Z,100801.50
2023-04-24T14:17:47.511Z,100792.69
2023-04-24T14:20:15.895Z,100790.06
2023-04-24T14:22:44.344Z,100792.63
2023-04-24T14:25:12.764Z,100808.41
2023-04-24T14:27:41.123Z,100804.91
2023-04-24T14:30:10.810Z,100805.66
2023-04-24T14:32:40.836Z,100811.88
2023-04-24T14:35:10.063Z,100805.66
2023-04-24T14:37:38.886Z,100799.59
2023-04-24T14:40:21.161Z,100790.13
2023-04-24T14:42:58.213Z,100800.53
2023-04-24T14:45:26.634Z,100794.38
2023-04-24T14:47:57.733Z,100797.19
2023-04-24T14:50:29.239Z,100788.34
2023-04-24T14:52:58.488Z,100807.59
2023-04-24T14:55:27.296Z,100804.72
2023-04-24T14:57:55.864Z,100803.16
2023-04-24T15:00:25.299Z,100789.19
2023-04-24T15:02:56.329Z,100812.00
2023-04-24T15:05:26.109Z,100796.94
2023-04-24T15:07:55.122Z,100813.59
2023-04-24T15:10:24.831Z,100808.22
2023-04-24T15:12:53.570Z,100797.81
2023-04-24T15:15:23.393Z,100805.84
2023-04-24T15:17:51.913Z,100813.78
2023-04-24T15:20:21.810Z,100810.94
2023-04-24T15:22:50.159Z,100823.22
2023-04-24T15:25:18.657Z,100817.19
2023-04-24T15:27:48.030Z,100818.22
2023-04-24T15:30:16.908Z,100813.94
2023-04-24T15:32:45.524Z,100813.91
2023-04-24T15:35:13.864Z,100827.28
2023-04-24T15:37:43.956Z,100822.97
2023-04-24T15:40:14.290Z,100827.28
2023-04-24T15:42:43.047Z,100836.94
2023-04-24T15:45:12.683Z,100823.59
2023-04-24T15:47:41.394Z,100837.72
2023-04-24T15:50:14.118Z,100857.06
2023-04-24T15:52:44.726Z,100742.78
2023-04-24T15:55:13.598Z,100836.81
2023-04-24T15:57:42.224Z,100834.22
2023-04-24T16:00:12.196Z,100845.72
2023-04-24T16:02:40.982Z,100800.00
2023-04-24T16:05:11.156Z,100839.63
2023-04-24T16:07:40.446Z,100839.53
2023-04-24T16:10:11.995Z,100839.56
2023-04-24T16:12:40.866Z,100837.72
2023-04-24T16:15:10.106Z,100842.97
2023-04-24T16:17:38.561Z,100834.41
2023-04-24T16:20:08.592Z,100845.84
2023-04-24T16:22:36.980Z,100873.16
2023-04-24T16:25:06.181Z,100853.72
2023-04-24T16:27:36.052Z,100840.53
2023-04-24T16:30:05.310Z,100829.22
2023-04-24T16:32:33.610Z,100829.22
2023-04-24T16:35:02.078Z,100850.34
2023-04-24T16:37:31.146Z,100855.53
2023-04-24T16:39:59.504Z,100853.78
2023-04-24T16:42:27.905Z,100841.56
2023-04-24T16:44:57.576Z,100839.75
2023-04-24T16:47:26.153Z,100853.78
2023-04-24T16:49:54.589Z,100853.00
2023-04-24T16:52:23.021Z,100852.09
2023-04-24T16:54:52.296Z,100860.03
2023-04-24T16:57:20.655Z,100861.75
2023-04-24T16:59:49.008Z,100844.16
2023-04-24T17:02:18.694Z,100874.97
2023-04-24T17:04:48.133Z,100871.25
2023-04-24T17:07:17.584Z,100874.97
2023-04-24T17:09:46.019Z,100883.88
2023-04-24T17:12:14.304Z,100884.56
2023-04-24T17:14:42.629Z,100876.66
2023-04-24T17:17:11.337Z,100801.22
2023-04-24T17:19:41.057Z,100893.41
2023-04-24T17:22:09.324Z,100890.00
2023-04-24T17:24:37.779Z,100872.31
2023-04-24T17:27:14.493Z,100879.47
2023-04-24T17:29:43.321Z,100880.34
2023-04-24T17:32:14.763Z,100883.06
2023-04-24T17:34:44.605Z,100883.84
2023-04-24T17:37:13.014Z,100883.00
2023-04-24T17:39:41.320Z,100872.44
2023-04-24T17:42:09.870Z,100867.22
2023-04-24T17:44:38.408Z,100759.94
2023-04-24T17:47:06.841Z,100877.75
2023-04-24T17:49:35.846Z,100864.56
2023-04-24T17:52:05.832Z,100891.88
2023-04-24T17:54:34.294Z,100896.22
2023-04-24T17:57:02.942Z,100901.47
2023-04-24T17:59:31.315Z,100856.69
2023-04-24T18:01:59.668Z,100865.47
2023-04-24T18:04:28.290Z,100902.41
2023-04-24T18:06:56.649Z,100892.78
2023-04-24T18:09:26.479Z,100889.22
2023-04-24T18:11:57.114Z,100898.06
2023-04-24T18:14:25.777Z,100820.69
2023-04-24T18:16:54.232Z,100894.56
2023-04-24T18:19:23.147Z,100889.31
2023-04-24T18:21:51.473Z,100906.91
2023-04-24T18:24:22.331Z,100900.72
2023-04-24T18:26:52.042Z,100901.66
2023-04-24T18:29:21.160Z,100906.94
2023-04-24T18:31:50.177Z,100913.97
2023-04-24T18:34:18.801Z,100919.25
2023-04-24T18:36:47.306Z,100913.13
2023-04-24T18:39:15.545Z,100917.50
2023-04-24T18:41:44.189Z,100928.09
2023-04-24T18:44:15.249Z,100923.69
2023-04-24T18:46:43.790Z,100933.38
2023-04-24T18:49:12.152Z,100942.19
2023-04-24T18:51:52.504Z,100936.91
2023-04-24T18:54:22.561Z,100948.34
2023-04-24T18:56:51.528Z,100950.13
2023-04-24T18:59:22.497Z,100939.56
2023-04-24T19:01:50.900Z,100942.19
2023-04-24T19:04:20.826Z,100946.63
2023-04-24T19:06:49.376Z,100959.84
2023-04-24T19:09:17.790Z,100962.44
2023-04-24T19:11:46.117Z,100963.34
2023-04-24T19:14:16.081Z,100955.41
2023-04-24T19:16:46.124Z,100964.22
2023-04-24T19:19:14.611Z,100965.97
2023-04-24T19:21:43.202Z,100975.66
2023-04-24T19:24:11.833Z,100979.19
2023-04-24T19:26:46.684Z,100972.16
2023-04-24T19:29:15.019Z,100984.47
2023-04-24T19:31:43.405Z,100984.50
2023-04-24T19:34:13.061Z,100991.56
2023-04-24T19:36:41.417Z,100989.78
2023-04-24T19:39:09.751Z,100978.31
2023-04-24T19:41:39.295Z,100988.88
2023-04-24T19:44:07.615Z,100983.59
2023-04-24T19:46:36.149Z,100982.69
2023-04-24T19:49:04.536Z,100992.44
2023-04-24T19:51:34.311Z,100985.38
2023-04-24T19:54:03.842Z,100990.69
2023-04-24T19:56:32.117Z,100994.19
2023-04-24T19:59:01.067Z,100973.94
2023-04-24T20:01:29.587Z,101002.97
2023-04-24T20:03:57.986Z,100992.41
2023-04-24T20:06:26.678Z,101001.25
2023-04-24T20:08:56.422Z,101000.38
2023-04-24T20:11:24.856Z,101001.22
2023-04-24T20:13:53.408Z,100997.72
2023-04-24T20:16:21.788Z,100991.56
2023-04-24T20:18:50.516Z,101001.22
2023-04-24T20:21:19.217Z,100981.84
2023-04-24T20:23:47.554Z,101008.31
2023-04-24T20:26:17.249Z,101003.91
2023-04-24T20:28:45.598Z,101001.25
2023-04-24T20:31:13.957Z,101003.88
2023-04-24T20:33:42.638Z,101002.09
2023-04-24T20:36:11.304Z,101003.00
2023-04-24T20:38:39.636Z,100996.81
2023-04-24T20:41:10.052Z,101004.75
2023-04-24T20:43:40.397Z,101009.13
2023-04-24T20:46:08.858Z,101001.25
2023-04-24T20:48:37.162Z,101019.72
2023-04-24T20:51:05.527Z,100992.38
2023-04-24T20:53:33.930Z,100974.72
2023-04-24T20:56:02.307Z,101001.16
2023-04-24T20:58:30.758Z,100995.03
2023-04-24T21:01:00.737Z,100991.50
2023-04-24T21:03:29.440Z,100988.00
2023-04-24T21:05:57.893Z,100994.19
2023-04-24T21:08:26.270Z,100989.75
2023-04-24T21:10:54.760Z,100898.16
2023-04-24T21:13:23.149Z,100985.34
2023-04-24T21:15:52.039Z,100981.75
2023-04-24T21:18:21.832Z,100990.56
2023-04-24T21:20:51.771Z,100992.34
2023-04-24T21:23:20.320Z,100992.38
2023-04-24T21:25:48.920Z,100990.63
2023-04-24T21:28:17.494Z,100980.06
2023-04-24T21:30:45.777Z,100980.94
2023-04-24T21:33:14.201Z,100980.03
2023-04-24T21:35:43.951Z,100979.16
2023-04-24T21:38:12.283Z,100963.28
2023-04-24T21:40:40.707Z,100967.69
2023-04-24T21:43:09.890Z,100968.53
2023-04-24T21:45:38.526Z,100958.84
2023-04-24T21:48:07.083Z,100958.84
2023-04-24T21:50:35.447Z,100960.56
2023-04-24T21:53:05.154Z,100967.66
2023-04-24T21:55:36.319Z,100957.97
2023-04-24T21:58:05.029Z,100928.03
2023-04-24T22:00:34.793Z,100957.91
2023-04-24T22:03:05.254Z,100847.03
2023-04-24T22:05:33.711Z,100960.53
2023-04-24T22:08:02.144Z,100960.53
2023-04-24T22:10:31.973Z,100937.66
2023-04-24T22:13:00.403Z,100975.50
2023-04-24T22:15:28.710Z,100972.94
2023-04-24T22:17:57.699Z,100979.06
2023-04-24T22:20:26.159Z,100988.84
2023-04-24T22:22:54.516Z,100981.78
2023-04-24T22:25:22.806Z,100986.13
2023-04-24T22:27:52.638Z,100981.75
2023-04-24T22:30:21.115Z,100991.50
2023-04-24T22:32:49.569Z,100993.22
2023-04-24T22:35:19.390Z,100985.25
2023-04-24T22:37:48.172Z,100992.34
2023-04-24T22:40:16.543Z,100987.94
2023-04-24T22:42:44.913Z,100990.53
2023-04-24T22:45:15.615Z,100980.03
2023-04-24T22:47:44.130Z,100979.13
2023-04-24T22:50:12.644Z,100981.75
2023-04-24T22:52:41.724Z,100994.94
2023-04-24T22:55:11.747Z,100997.56
2023-04-24T22:57:40.268Z,100996.81
2023-04-24T23:00:10.992Z,101000.34
2023-04-24T23:02:42.206Z,101019.72
2023-04-24T23:05:12.280Z,100997.69
2023-04-24T23:07:40.742Z,101005.63
2023-04-24T23:10:10.186Z,100994.19
2023-04-24T23:12:39.073Z,100994.13
2023-04-24T23:15:09.494Z,100999.38
2023-04-24T23:17:37.838Z,100993.19
2023-04-24T23:20:12.148Z,100989.66
2023-04-24T23:22:40.636Z,101011.78
2023-04-24T23:25:10.929Z,101004.72
2023-04-24T23:27:39.632Z,100962.47
2023-04-24T23:30:09.805Z,101002.97
2023-04-24T23:32:38.101Z,100933.38
2023-04-24T23:35:09.051Z,101005.63
2023-04-24T23:37:38.476Z,101009.16
2023-04-24T23:40:09.970Z,101007.38
2023-04-24T23:42:38.289Z,101010.88
2023-04-24T23:45:08.000Z,101012.66
2023-04-24T23:47:36.334Z,100983.59
2023-04-24T23:50:05.156Z,101020.56
2023-04-24T23:52:35.486Z,101012.69
2023-04-24T23:55:04.636Z,101017.06
2023-04-24T23:57:33.284Z,101003.88
